Noatak, Alaska
Current Conditions -  °F | °C
As of 3:16 AM on Wednesday 26 Nov 2014 (Local Time) from PAWN Reporting Station
Clear Clear  
Wind Chill: -6°   Ceiling: Unl
Heat Index: -6°   Visibility: 10mi
Dew Point: -9°   Wind: 3mph
Humidity: 84%   Direction: 20°NNE
Pressure: 30.47"   Gusts: NA
Location:  67.56°N, 162.98°W
Report Text: PAWN 261216Z AUTO 02003KT 10SM CLR M21/M23 A3047 RMK AO1
Loading
Personal Weather Stations






























Interactive Weather Map New forecast layout! Learn more

10-Day Weather Forecast

Advertisements
Track Severe Weather on mobile